sensor_id;sensor_type;location;lat;lon;timestamp;P1;durP1;ratioP1;P2;durP2;ratioP2
6505;SDS011;3286;49.858;8.768;2023-05-10T00:00:24;0.53;;;0.50;;
6505;SDS011;3286;49.858;8.768;2023-05-10T00:02:51;0.30;;;0.30;;
6505;SDS011;3286;49.858;8.768;2023-05-10T00:05:18;0.45;;;0.38;;
6505;SDS011;3286;49.858;8.768;2023-05-10T00:07:46;1.10;;;0.60;;
6505;SDS011;3286;49.858;8.768;2023-05-10T00:10:12;0.70;;;0.57;;
6505;SDS011;3286;49.858;8.768;2023-05-10T00:12:39;0.55;;;0.40;;
6505;SDS011;3286;49.858;8.768;2023-05-10T00:15:06;0.60;;;0.60;;
6505;SDS011;3286;49.858;8.768;2023-05-10T00:17:34;0.50;;;0.50;;
6505;SDS011;3286;49.858;8.768;2023-05-10T00:20:01;0.60;;;0.60;;
6505;SDS011;3286;49.858;8.768;2023-05-10T00:22:29;0.77;;;0.40;;
6505;SDS011;3286;49.858;8.768;2023-05-10T00:24:57;1.27;;;0.80;;
6505;SDS011;3286;49.858;8.768;2023-05-10T00:27:24;2.03;;;0.70;;
6505;SDS011;3286;49.858;8.768;2023-05-10T00:29:51;0.70;;;0.70;;
6505;SDS011;3286;49.858;8.768;2023-05-10T00:32:18;2.10;;;0.93;;
6505;SDS011;3286;49.858;8.768;2023-05-10T00:34:44;0.80;;;0.80;;
6505;SDS011;3286;49.858;8.768;2023-05-10T00:37:11;2.47;;;1.20;;
6505;SDS011;3286;49.858;8.768;2023-05-10T00:39:38;1.80;;;0.80;;
6505;SDS011;3286;49.858;8.768;2023-05-10T00:42:06;0.97;;;0.93;;
6505;SDS011;3286;49.858;8.768;2023-05-10T00:44:32;0.70;;;0.70;;
6505;SDS011;3286;49.858;8.768;2023-05-10T00:46:59;1.05;;;1.05;;
6505;SDS011;3286;49.858;8.768;2023-05-10T00:49:26;1.20;;;1.13;;
6505;SDS011;3286;49.858;8.768;2023-05-10T00:51:52;0.90;;;0.90;;
6505;SDS011;3286;49.858;8.768;2023-05-10T00:54:19;0.70;;;0.70;;
6505;SDS011;3286;49.858;8.768;2023-05-10T00:56:46;1.17;;;1.07;;
6505;SDS011;3286;49.858;8.768;2023-05-10T00:59:15;1.10;;;1.10;;
6505;SDS011;3286;49.858;8.768;2023-05-10T01:01:43;1.25;;;1.15;;
6505;SDS011;3286;49.858;8.768;2023-05-10T01:04:10;1.40;;;1.30;;
6505;SDS011;3286;49.858;8.768;2023-05-10T01:06:38;1.47;;;1.37;;
6505;SDS011;3286;49.858;8.768;2023-05-10T01:09:05;1.77;;;1.67;;
6505;SDS011;3286;49.858;8.768;2023-05-10T01:11:32;2.00;;;1.70;;
6505;SDS011;3286;49.858;8.768;2023-05-10T01:13:59;2.22;;;1.60;;
6505;SDS011;3286;49.858;8.768;2023-05-10T01:16:27;2.05;;;1.73;;
6505;SDS011;3286;49.858;8.768;2023-05-10T01:18:55;2.70;;;2.20;;
6505;SDS011;3286;49.858;8.768;2023-05-10T01:21:23;4.00;;;2.20;;
6505;SDS011;3286;49.858;8.768;2023-05-10T01:24:07;5.63;;;2.20;;
6505;SDS011;3286;49.858;8.768;2023-05-10T01:32:49;2.10;;;2.00;;
6505;SDS011;3286;49.858;8.768;2023-05-10T01:35:26;2.40;;;2.20;;
6505;SDS011;3286;49.858;8.768;2023-05-10T01:37:59;2.03;;;1.93;;
6505;SDS011;3286;49.858;8.768;2023-05-10T01:40:32;2.93;;;2.07;;
6505;SDS011;3286;49.858;8.768;2023-05-10T01:43:04;1.60;;;1.50;;
6505;SDS011;3286;49.858;8.768;2023-05-10T01:45:38;1.83;;;1.70;;
6505;SDS011;3286;49.858;8.768;2023-05-10T01:48:11;1.40;;;1.30;;
6505;SDS011;3286;49.858;8.768;2023-05-10T01:50:43;2.30;;;1.58;;
6505;SDS011;3286;49.858;8.768;2023-05-10T01:53:11;1.33;;;1.23;;
6505;SDS011;3286;49.858;8.768;2023-05-10T01:55:45;1.27;;;1.17;;
6505;SDS011;3286;49.858;8.768;2023-05-10T01:58:14;1.07;;;1.00;;
6505;SDS011;3286;49.858;8.768;2023-05-10T02:00:45;2.35;;;1.50;;
6505;SDS011;3286;49.858;8.768;2023-05-10T02:03:14;2.93;;;1.30;;
6505;SDS011;3286;49.858;8.768;2023-05-10T02:05:43;2.30;;;1.27;;
6505;SDS011;3286;49.858;8.768;2023-05-10T02:08:12;1.37;;;1.20;;
6505;SDS011;3286;49.858;8.768;2023-05-10T02:10:41;1.27;;;1.17;;
6505;SDS011;3286;49.858;8.768;2023-05-10T02:13:09;1.37;;;1.10;;
6505;SDS011;3286;49.858;8.768;2023-05-10T02:15:37;1.00;;;1.00;;
6505;SDS011;3286;49.858;8.768;2023-05-10T02:18:06;0.90;;;0.90;;
6505;SDS011;3286;49.858;8.768;2023-05-10T02:20:36;1.13;;;1.10;;
6505;SDS011;3286;49.858;8.768;2023-05-10T02:23:04;1.08;;;1.02;;
6505;SDS011;3286;49.858;8.768;2023-05-10T02:25:33;1.87;;;1.00;;
6505;SDS011;3286;49.858;8.768;2023-05-10T02:28:02;0.93;;;0.93;;
6505;SDS011;3286;49.858;8.768;2023-05-10T02:30:31;1.00;;;1.00;;
6505;SDS011;3286;49.858;8.768;2023-05-10T02:32:59;0.77;;;0.77;;
6505;SDS011;3286;49.858;8.768;2023-05-10T02:35:28;1.70;;;1.10;;
6505;SDS011;3286;49.858;8.768;2023-05-10T02:37:57;1.23;;;1.00;;
6505;SDS011;3286;49.858;8.768;2023-05-10T02:40:26;1.10;;;1.00;;
6505;SDS011;3286;49.858;8.768;2023-05-10T02:42:54;3.63;;;1.10;;
6505;SDS011;3286;49.858;8.768;2023-05-10T02:45:23;1.10;;;1.00;;
6505;SDS011;3286;49.858;8.768;2023-05-10T02:47:54;3.17;;;1.00;;
6505;SDS011;3286;49.858;8.768;2023-05-10T02:50:21;1.10;;;1.00;;
6505;SDS011;3286;49.858;8.768;2023-05-10T02:52:51;4.00;;;1.10;;
6505;SDS011;3286;49.858;8.768;2023-05-10T02:55:25;3.30;;;1.00;;
6505;SDS011;3286;49.858;8.768;2023-05-10T02:57:58;1.50;;;1.20;;
6505;SDS011;3286;49.858;8.768;2023-05-10T03:00:26;2.45;;;1.00;;
6505;SDS011;3286;49.858;8.768;2023-05-10T03:02:53;1.25;;;1.15;;
6505;SDS011;3286;49.858;8.768;2023-05-10T03:05:20;1.07;;;1.00;;
6505;SDS011;3286;49.858;8.768;2023-05-10T03:07:47;3.80;;;1.27;;
6505;SDS011;3286;49.858;8.768;2023-05-10T03:10:14;1.40;;;1.20;;
6505;SDS011;3286;49.858;8.768;2023-05-10T03:12:46;0.80;;;0.80;;
6505;SDS011;3286;49.858;8.768;2023-05-10T03:15:25;1.00;;;0.90;;
6505;SDS011;3286;49.858;8.768;2023-05-10T03:18:04;1.33;;;1.23;;
6505;SDS011;3286;49.858;8.768;2023-05-10T03:20:36;0.98;;;0.98;;
6505;SDS011;3286;49.858;8.768;2023-05-10T03:23:09;1.30;;;1.17;;
6505;SDS011;3286;49.858;8.768;2023-05-10T03:25:39;1.20;;;1.10;;
6505;SDS011;3286;49.858;8.768;2023-05-10T03:28:10;1.00;;;1.00;;
6505;SDS011;3286;49.858;8.768;2023-05-10T03:30:38;2.87;;;1.03;;
6505;SDS011;3286;49.858;8.768;2023-05-10T03:33:05;2.25;;;1.20;;
6505;SDS011;3286;49.858;8.768;2023-05-10T03:35:32;1.25;;;1.15;;
6505;SDS011;3286;49.858;8.768;2023-05-10T03:37:59;1.27;;;1.17;;
6505;SDS011;3286;49.858;8.768;2023-05-10T03:40:26;1.37;;;1.10;;
6505;SDS011;3286;49.858;8.768;2023-05-10T03:42:54;1.27;;;0.90;;
6505;SDS011;3286;49.858;8.768;2023-05-10T03:45:22;1.20;;;1.10;;
6505;SDS011;3286;49.858;8.768;2023-05-10T03:47:48;1.40;;;1.17;;
6505;SDS011;3286;49.858;8.768;2023-05-10T03:50:15;1.30;;;1.20;;
6505;SDS011;3286;49.858;8.768;2023-05-10T03:52:42;1.27;;;1.10;;
6505;SDS011;3286;49.858;8.768;2023-05-10T03:55:09;1.40;;;1.30;;
6505;SDS011;3286;49.858;8.768;2023-05-10T03:57:36;1.53;;;1.23;;
6505;SDS011;3286;49.858;8.768;2023-05-10T04:00:03;3.08;;;1.40;;
6505;SDS011;3286;49.858;8.768;2023-05-10T04:02:31;3.10;;;1.50;;
6505;SDS011;3286;49.858;8.768;2023-05-10T04:04:58;1.60;;;1.50;;
6505;SDS011;3286;49.858;8.768;2023-05-10T04:07:24;2.33;;;1.50;;
6505;SDS011;3286;49.858;8.768;2023-05-10T04:09:51;2.53;;;1.53;;
6505;SDS011;3286;49.858;8.768;2023-05-10T04:12:18;2.80;;;1.80;;
6505;SDS011;3286;49.858;8.768;2023-05-10T04:14:44;1.80;;;1.70;;
6505;SDS011;3286;49.858;8.768;2023-05-10T04:17:11;2.08;;;1.88;;
6505;SDS011;3286;49.858;8.768;2023-05-10T04:19:39;1.77;;;1.67;;
6505;SDS011;3286;49.858;8.768;2023-05-10T04:22:06;3.73;;;1.70;;
6505;SDS011;3286;49.858;8.768;2023-05-10T04:24:32;2.05;;;1.85;;
6505;SDS011;3286;49.858;8.768;2023-05-10T04:26:59;2.03;;;1.90;;
6505;SDS011;3286;49.858;8.768;2023-05-10T04:29:25;2.50;;;1.80;;
6505;SDS011;3286;49.858;8.768;2023-05-10T04:31:52;1.92;;;1.80;;
6505;SDS011;3286;49.858;8.768;2023-05-10T04:34:20;2.90;;;2.33;;
6505;SDS011;3286;49.858;8.768;2023-05-10T04:36:48;3.27;;;2.20;;
6505;SDS011;3286;49.858;8.768;2023-05-10T04:39:15;1.60;;;1.50;;
6505;SDS011;3286;49.858;8.768;2023-05-10T04:41:41;3.90;;;1.70;;
6505;SDS011;3286;49.858;8.768;2023-05-10T04:44:08;2.47;;;1.80;;
6505;SDS011;3286;49.858;8.768;2023-05-10T04:46:35;2.88;;;2.00;;
6505;SDS011;3286;49.858;8.768;2023-05-10T04:49:01;2.17;;;1.83;;
6505;SDS011;3286;49.858;8.768;2023-05-10T04:51:28;1.85;;;1.73;;
6505;SDS011;3286;49.858;8.768;2023-05-10T04:53:56;2.08;;;1.73;;
6505;SDS011;3286;49.858;8.768;2023-05-10T04:56:23;3.03;;;1.87;;
6505;SDS011;3286;49.858;8.768;2023-05-10T04:58:50;2.03;;;1.67;;
6505;SDS011;3286;49.858;8.768;2023-05-10T05:01:16;3.78;;;1.60;;
6505;SDS011;3286;49.858;8.768;2023-05-10T05:03:43;2.07;;;1.80;;
6505;SDS011;3286;49.858;8.768;2023-05-10T05:06:10;2.95;;;1.92;;
6505;SDS011;3286;49.858;8.768;2023-05-10T05:08:36;2.93;;;1.80;;
6505;SDS011;3286;49.858;8.768;2023-05-10T05:11:04;4.32;;;1.80;;
6505;SDS011;3286;49.858;8.768;2023-05-10T05:13:31;3.20;;;1.73;;
6505;SDS011;3286;49.858;8.768;2023-05-10T05:15:59;4.53;;;1.80;;
6505;SDS011;3286;49.858;8.768;2023-05-10T05:18:26;6.47;;;1.90;;
6505;SDS011;3286;49.858;8.768;2023-05-10T05:20:53;2.78;;;1.88;;
6505;SDS011;3286;49.858;8.768;2023-05-10T05:23:19;4.45;;;1.88;;
6505;SDS011;3286;49.858;8.768;2023-05-10T05:25:49;7.00;;;2.00;;
6505;SDS011;3286;49.858;8.768;2023-05-10T05:28:18;1.93;;;1.80;;
6505;SDS011;3286;49.858;8.768;2023-05-10T05:30:45;4.57;;;2.00;;
6505;SDS011;3286;49.858;8.768;2023-05-10T05:33:12;2.67;;;1.95;;
6505;SDS011;3286;49.858;8.768;2023-05-10T05:35:40;4.72;;;2.30;;
6505;SDS011;3286;49.858;8.768;2023-05-10T05:38:07;2.08;;;1.83;;
6505;SDS011;3286;49.858;8.768;2023-05-10T05:40:34;3.10;;;2.00;;
6505;SDS011;3286;49.858;8.768;2023-05-10T05:43:01;2.65;;;1.80;;
6505;SDS011;3286;49.858;8.768;2023-05-10T05:45:29;2.60;;;1.75;;
6505;SDS011;3286;49.858;8.768;2023-05-10T05:47:55;2.85;;;1.80;;
6505;SDS011;3286;49.858;8.768;2023-05-10T05:50:22;6.40;;;2.07;;
6505;SDS011;3286;49.858;8.768;2023-05-10T05:52:49;6.10;;;2.15;;
6505;SDS011;3286;49.858;8.768;2023-05-10T05:55:16;5.05;;;2.20;;
6505;SDS011;3286;49.858;8.768;2023-05-10T05:57:42;3.40;;;2.40;;
6505;SDS011;3286;49.858;8.768;2023-05-10T06:00:09;3.20;;;1.90;;
6505;SDS011;3286;49.858;8.768;2023-05-10T06:02:38;3.38;;;1.95;;
6505;SDS011;3286;49.858;8.768;2023-05-10T06:05:05;3.83;;;2.08;;
6505;SDS011;3286;49.858;8.768;2023-05-10T06:07:32;3.90;;;1.95;;
6505;SDS011;3286;49.858;8.768;2023-05-10T06:09:59;2.25;;;1.63;;
6505;SDS011;3286;49.858;8.768;2023-05-10T06:12:25;3.97;;;1.77;;
6505;SDS011;3286;49.858;8.768;2023-05-10T06:14:52;6.68;;;1.90;;
6505;SDS011;3286;49.858;8.768;2023-05-10T06:17:19;5.15;;;2.00;;
6505;SDS011;3286;49.858;8.768;2023-05-10T06:19:48;2.92;;;1.75;;
6505;SDS011;3286;49.858;8.768;2023-05-10T06:22:14;4.85;;;2.08;;
6505;SDS011;3286;49.858;8.768;2023-05-10T06:24:41;2.55;;;1.95;;
6505;SDS011;3286;49.858;8.768;2023-05-10T06:27:08;3.47;;;1.83;;
6505;SDS011;3286;49.858;8.768;2023-05-10T06:29:35;2.63;;;1.57;;
6505;SDS011;3286;49.858;8.768;2023-05-10T06:32:01;5.82;;;2.00;;
6505;SDS011;3286;49.858;8.768;2023-05-10T06:34:28;3.60;;;2.00;;
6505;SDS011;3286;49.858;8.768;2023-05-10T06:36:56;3.58;;;2.00;;
6505;SDS011;3286;49.858;8.768;2023-05-10T06:39:23;5.07;;;1.98;;
6505;SDS011;3286;49.858;8.768;2023-05-10T06:41:49;1.85;;;1.38;;
6505;SDS011;3286;49.858;8.768;2023-05-10T06:44:16;2.80;;;1.98;;
6505;SDS011;3286;49.858;8.768;2023-05-10T06:46:42;3.75;;;1.90;;
6505;SDS011;3286;49.858;8.768;2023-05-10T06:49:09;3.78;;;1.77;;
6505;SDS011;3286;49.858;8.768;2023-05-10T06:51:36;4.35;;;2.08;;
6505;SDS011;3286;49.858;8.768;2023-05-10T06:54:04;7.53;;;3.08;;
6505;SDS011;3286;49.858;8.768;2023-05-10T06:56:30;3.17;;;2.10;;
6505;SDS011;3286;49.858;8.768;2023-05-10T06:58:57;6.50;;;2.30;;
6505;SDS011;3286;49.858;8.768;2023-05-10T07:01:23;2.75;;;2.03;;
6505;SDS011;3286;49.858;8.768;2023-05-10T07:03:50;2.92;;;2.40;;
6505;SDS011;3286;49.858;8.768;2023-05-10T07:06:17;2.35;;;2.08;;
6505;SDS011;3286;49.858;8.768;2023-05-10T07:08:43;2.92;;;2.50;;
6505;SDS011;3286;49.858;8.768;2023-05-10T07:11:11;4.65;;;2.40;;
6505;SDS011;3286;49.858;8.768;2023-05-10T07:13:38;3.40;;;2.50;;
6505;SDS011;3286;49.858;8.768;2023-05-10T07:16:09;8.00;;;2.70;;
6505;SDS011;3286;49.858;8.768;2023-05-10T07:18:36;4.88;;;2.50;;
6505;SDS011;3286;49.858;8.768;2023-05-10T07:21:02;3.55;;;2.55;;
6505;SDS011;3286;49.858;8.768;2023-05-10T07:23:29;4.38;;;2.22;;
6505;SDS011;3286;49.858;8.768;2023-05-10T07:25:56;3.55;;;2.60;;
6505;SDS011;3286;49.858;8.768;2023-05-10T07:28:24;2.88;;;2.67;;
6505;SDS011;3286;49.858;8.768;2023-05-10T07:30:51;2.42;;;2.13;;
6505;SDS011;3286;49.858;8.768;2023-05-10T07:33:17;4.28;;;2.88;;
6505;SDS011;3286;49.858;8.768;2023-05-10T07:35:44;3.40;;;2.13;;
6505;SDS011;3286;49.858;8.768;2023-05-10T07:38:11;2.90;;;2.25;;
6505;SDS011;3286;49.858;8.768;2023-05-10T07:40:38;3.15;;;2.00;;
6505;SDS011;3286;49.858;8.768;2023-05-10T07:43:05;4.63;;;2.30;;
6505;SDS011;3286;49.858;8.768;2023-05-10T07:45:34;2.58;;;2.10;;
6505;SDS011;3286;49.858;8.768;2023-05-10T07:48:00;5.20;;;2.42;;
6505;SDS011;3286;49.858;8.768;2023-05-10T07:50:27;5.55;;;2.25;;
6505;SDS011;3286;49.858;8.768;2023-05-10T07:52:54;2.45;;;1.80;;
6505;SDS011;3286;49.858;8.768;2023-05-10T07:55:20;2.95;;;1.85;;
6505;SDS011;3286;49.858;8.768;2023-05-10T07:57:47;3.90;;;2.03;;
6505;SDS011;3286;49.858;8.768;2023-05-10T08:00:14;2.00;;;1.80;;
6505;SDS011;3286;49.858;8.768;2023-05-10T08:02:44;1.92;;;1.75;;
6505;SDS011;3286;49.858;8.768;2023-05-10T08:05:11;2.10;;;1.90;;
6505;SDS011;3286;49.858;8.768;2023-05-10T08:07:38;4.15;;;2.05;;
6505;SDS011;3286;49.858;8.768;2023-05-10T08:10:05;5.25;;;2.08;;
6505;SDS011;3286;49.858;8.768;2023-05-10T08:12:33;2.47;;;1.90;;
6505;SDS011;3286;49.858;8.768;2023-05-10T08:15:00;2.20;;;1.73;;
6505;SDS011;3286;49.858;8.768;2023-05-10T08:17:26;4.15;;;1.58;;
6505;SDS011;3286;49.858;8.768;2023-05-10T08:19:54;3.10;;;1.70;;
6505;SDS011;3286;49.858;8.768;2023-05-10T08:22:21;3.72;;;1.60;;
6505;SDS011;3286;49.858;8.768;2023-05-10T08:24:47;4.70;;;1.88;;
6505;SDS011;3286;49.858;8.768;2023-05-10T08:27:14;2.20;;;1.60;;
6505;SDS011;3286;49.858;8.768;2023-05-10T08:29:40;3.13;;;1.80;;
6505;SDS011;3286;49.858;8.768;2023-05-10T08:32:07;4.53;;;1.92;;
6505;SDS011;3286;49.858;8.768;2023-05-10T08:34:34;1.58;;;1.48;;
6505;SDS011;3286;49.858;8.768;2023-05-10T08:37:02;2.35;;;1.83;;
6505;SDS011;3286;49.858;8.768;2023-05-10T08:39:29;2.45;;;1.50;;
6505;SDS011;3286;49.858;8.768;2023-05-10T08:42:01;3.88;;;1.90;;
6505;SDS011;3286;49.858;8.768;2023-05-10T08:44:30;3.05;;;1.60;;
6505;SDS011;3286;49.858;8.768;2023-05-10T08:47:01;1.70;;;1.60;;
6505;SDS011;3286;49.858;8.768;2023-05-10T08:49:31;1.75;;;1.55;;
6505;SDS011;3286;49.858;8.768;2023-05-10T08:51:58;2.03;;;1.75;;
6505;SDS011;3286;49.858;8.768;2023-05-10T08:54:29;3.78;;;2.03;;
6505;SDS011;3286;49.858;8.768;2023-05-10T08:56:57;2.13;;;1.85;;
6505;SDS011;3286;49.858;8.768;2023-05-10T08:59:23;2.53;;;1.73;;
6505;SDS011;3286;49.858;8.768;2023-05-10T09:01:50;1.85;;;1.75;;
6505;SDS011;3286;49.858;8.768;2023-05-10T09:04:18;5.00;;;2.10;;
6505;SDS011;3286;49.858;8.768;2023-05-10T09:06:46;2.92;;;2.03;;
6505;SDS011;3286;49.858;8.768;2023-05-10T09:09:14;4.80;;;2.47;;
6505;SDS011;3286;49.858;8.768;2023-05-10T09:11:42;4.25;;;2.15;;
6505;SDS011;3286;49.858;8.768;2023-05-10T09:14:09;8.48;;;2.03;;
6505;SDS011;3286;49.858;8.768;2023-05-10T09:16:36;2.60;;;2.00;;
6505;SDS011;3286;49.858;8.768;2023-05-10T09:19:02;3.15;;;2.08;;
6505;SDS011;3286;49.858;8.768;2023-05-10T09:21:29;6.88;;;2.22;;
6505;SDS011;3286;49.858;8.768;2023-05-10T09:23:56;2.28;;;2.03;;
6505;SDS011;3286;49.858;8.768;2023-05-10T09:26:24;2.15;;;1.77;;
6505;SDS011;3286;49.858;8.768;2023-05-10T09:28:51;2.20;;;2.00;;
6505;SDS011;3286;49.858;8.768;2023-05-10T09:31:19;3.08;;;1.58;;
6505;SDS011;3286;49.858;8.768;2023-05-10T09:33:46;1.90;;;1.73;;
6505;SDS011;3286;49.858;8.768;2023-05-10T09:36:13;2.30;;;1.75;;
6505;SDS011;3286;49.858;8.768;2023-05-10T09:38:46;2.28;;;1.75;;
6505;SDS011;3286;49.858;8.768;2023-05-10T09:41:17;1.33;;;1.20;;
6505;SDS011;3286;49.858;8.768;2023-05-10T09:43:47;3.05;;;1.38;;
6505;SDS011;3286;49.858;8.768;2023-05-10T09:46:14;2.50;;;1.50;;
6505;SDS011;3286;49.858;8.768;2023-05-10T09:48:42;3.28;;;1.50;;
6505;SDS011;3286;49.858;8.768;2023-05-10T09:51:10;2.58;;;1.00;;
6505;SDS011;3286;49.858;8.768;2023-05-10T09:53:37;1.45;;;0.85;;
6505;SDS011;3286;49.858;8.768;2023-05-10T09:56:03;0.63;;;0.63;;
6505;SDS011;3286;49.858;8.768;2023-05-10T09:58:30;1.77;;;1.00;;
6505;SDS011;3286;49.858;8.768;2023-05-10T10:00:58;1.50;;;1.10;;
6505;SDS011;3286;49.858;8.768;2023-05-10T10:03:25;1.50;;;0.68;;
6505;SDS011;3286;49.858;8.768;2023-05-10T10:05:51;1.30;;;0.93;;
6505;SDS011;3286;49.858;8.768;2023-05-10T10:08:21;2.65;;;1.00;;
6505;SDS011;3286;49.858;8.768;2023-05-10T10:10:47;4.13;;;1.20;;
6505;SDS011;3286;49.858;8.768;2023-05-10T10:13:15;2.83;;;1.10;;
6505;SDS011;3286;49.858;8.768;2023-05-10T10:15:42;2.38;;;1.17;;
6505;SDS011;3286;49.858;8.768;2023-05-10T10:18:12;2.08;;;1.20;;
6505;SDS011;3286;49.858;8.768;2023-05-10T10:20:40;1.65;;;1.10;;
6505;SDS011;3286;49.858;8.768;2023-05-10T10:23:07;1.15;;;1.08;;
6505;SDS011;3286;49.858;8.768;2023-05-10T10:25:34;4.32;;;1.15;;
6505;SDS011;3286;49.858;8.768;2023-05-10T10:28:14;1.25;;;1.15;;
6505;SDS011;3286;49.858;8.768;2023-05-10T10:30:49;1.50;;;1.40;;
6505;SDS011;3286;49.858;8.768;2023-05-10T10:33:30;1.30;;;1.15;;
6505;SDS011;3286;49.858;8.768;2023-05-10T10:36:06;2.90;;;1.52;;
6505;SDS011;3286;49.858;8.768;2023-05-10T10:38:36;2.45;;;1.42;;
6505;SDS011;3286;49.858;8.768;2023-05-10T10:41:27;2.28;;;1.50;;
6505;SDS011;3286;49.858;8.768;2023-05-10T10:47:04;2.80;;;1.60;;
6505;SDS011;3286;49.858;8.768;2023-05-10T10:49:38;2.22;;;1.30;;
6505;SDS011;3286;49.858;8.768;2023-05-10T10:54:59;1.92;;;1.20;;
6505;SDS011;3286;49.858;8.768;2023-05-10T10:57:28;2.70;;;1.20;;
6505;SDS011;3286;49.858;8.768;2023-05-10T11:02:58;2.85;;;1.10;;
6505;SDS011;3286;49.858;8.768;2023-05-10T11:05:39;4.10;;;0.93;;
6505;SDS011;3286;49.858;8.768;2023-05-10T11:08:08;0.80;;;0.80;;
6505;SDS011;3286;49.858;8.768;2023-05-10T11:10:37;2.00;;;0.80;;
6505;SDS011;3286;49.858;8.768;2023-05-10T11:13:04;2.05;;;0.98;;
6505;SDS011;3286;49.858;8.768;2023-05-10T11:15:32;7.75;;;1.15;;
6505;SDS011;3286;49.858;8.768;2023-05-10T11:18:00;1.65;;;1.00;;
6505;SDS011;3286;49.858;8.768;2023-05-10T11:20:43;1.10;;;1.05;;
6505;SDS011;3286;49.858;8.768;2023-05-10T11:23:12;3.08;;;1.17;;
6505;SDS011;3286;49.858;8.768;2023-05-10T11:25:41;1.25;;;1.13;;
6505;SDS011;3286;49.858;8.768;2023-05-10T11:28:10;6.85;;;1.13;;
6505;SDS011;3286;49.858;8.768;2023-05-10T11:30:37;5.50;;;1.00;;
6505;SDS011;3286;49.858;8.768;2023-05-10T11:33:05;4.43;;;1.55;;
6505;SDS011;3286;49.858;8.768;2023-05-10T11:35:36;2.50;;;1.08;;
6505;SDS011;3286;49.858;8.768;2023-05-10T11:38:06;6.57;;;1.10;;
6505;SDS011;3286;49.858;8.768;2023-05-10T11:40:33;1.65;;;0.82;;
6505;SDS011;3286;49.858;8.768;2023-05-10T11:43:00;4.25;;;1.10;;
6505;SDS011;3286;49.858;8.768;2023-05-10T11:45:27;1.20;;;1.02;;
6505;SDS011;3286;49.858;8.768;2023-05-10T11:47:54;3.88;;;1.00;;
6505;SDS011;3286;49.858;8.768;2023-05-10T11:50:21;2.72;;;1.08;;
6505;SDS011;3286;49.858;8.768;2023-05-10T11:52:50;2.28;;;0.90;;
6505;SDS011;3286;49.858;8.768;2023-05-10T11:55:18;4.53;;;1.30;;
6505;SDS011;3286;49.858;8.768;2023-05-10T11:57:45;1.73;;;1.17;;
6505;SDS011;3286;49.858;8.768;2023-05-10T12:00:12;4.45;;;1.20;;
6505;SDS011;3286;49.858;8.768;2023-05-10T12:02:40;0.75;;;0.75;;
6505;SDS011;3286;49.858;8.768;2023-05-10T12:05:07;4.40;;;0.80;;
6505;SDS011;3286;49.858;8.768;2023-05-10T12:07:34;2.70;;;0.90;;
6505;SDS011;3286;49.858;8.768;2023-05-10T12:10:05;1.02;;;0.80;;
6505;SDS011;3286;49.858;8.768;2023-05-10T12:12:38;1.45;;;0.98;;
6505;SDS011;3286;49.858;8.768;2023-05-10T12:15:07;1.30;;;0.70;;
6505;SDS011;3286;49.858;8.768;2023-05-10T12:17:37;1.30;;;0.73;;
6505;SDS011;3286;49.858;8.768;2023-05-10T12:20:14;2.25;;;1.48;;
6505;SDS011;3286;49.858;8.768;2023-05-10T12:22:45;0.57;;;0.57;;
6505;SDS011;3286;49.858;8.768;2023-05-10T12:25:16;0.75;;;0.70;;
6505;SDS011;3286;49.858;8.768;2023-05-10T12:27:51;1.17;;;1.00;;
6505;SDS011;3286;49.858;8.768;2023-05-10T12:30:20;1.48;;;1.02;;
6505;SDS011;3286;49.858;8.768;2023-05-10T12:32:48;1.75;;;1.00;;
6505;SDS011;3286;49.858;8.768;2023-05-10T12:35:15;1.02;;;0.95;;
6505;SDS011;3286;49.858;8.768;2023-05-10T12:37:45;4.53;;;0.90;;
6505;SDS011;3286;49.858;8.768;2023-05-10T12:40:12;2.30;;;0.75;;
6505;SDS011;3286;49.858;8.768;2023-05-10T12:42:39;3.50;;;1.00;;
6505;SDS011;3286;49.858;8.768;2023-05-10T12:45:07;1.85;;;0.82;;
6505;SDS011;3286;49.858;8.768;2023-05-10T12:47:34;2.33;;;1.00;;
6505;SDS011;3286;49.858;8.768;2023-05-10T12:50:01;0.75;;;0.70;;
6505;SDS011;3286;49.858;8.768;2023-05-10T12:52:28;3.05;;;0.70;;
6505;SDS011;3286;49.858;8.768;2023-05-10T12:54:56;2.00;;;0.90;;
6505;SDS011;3286;49.858;8.768;2023-05-10T12:57:23;2.33;;;0.88;;
6505;SDS011;3286;49.858;8.768;2023-05-10T12:59:50;2.10;;;0.73;;
6505;SDS011;3286;49.858;8.768;2023-05-10T13:02:18;3.78;;;1.05;;
6505;SDS011;3286;49.858;8.768;2023-05-10T13:04:46;1.92;;;0.80;;
6505;SDS011;3286;49.858;8.768;2023-05-10T13:07:12;2.03;;;1.10;;
6505;SDS011;3286;49.858;8.768;2023-05-10T13:09:39;2.15;;;1.10;;
6505;SDS011;3286;49.858;8.768;2023-05-10T13:12:06;1.00;;;0.82;;
6505;SDS011;3286;49.858;8.768;2023-05-10T13:14:32;1.13;;;0.90;;
6505;SDS011;3286;49.858;8.768;2023-05-10T13:16:59;1.38;;;0.80;;
6505;SDS011;3286;49.858;8.768;2023-05-10T13:19:27;3.53;;;1.10;;
6505;SDS011;3286;49.858;8.768;2023-05-10T13:21:54;1.95;;;0.90;;
6505;SDS011;3286;49.858;8.768;2023-05-10T13:24:20;1.10;;;0.90;;
6505;SDS011;3286;49.858;8.768;2023-05-10T13:26:47;1.00;;;0.77;;
6505;SDS011;3286;49.858;8.768;2023-05-10T13:29:14;0.98;;;0.90;;
6505;SDS011;3286;49.858;8.768;2023-05-10T13:31:43;2.85;;;0.90;;
6505;SDS011;3286;49.858;8.768;2023-05-10T13:34:09;2.17;;;0.85;;
6505;SDS011;3286;49.858;8.768;2023-05-10T13:36:37;3.95;;;1.17;;
6505;SDS011;3286;49.858;8.768;2023-05-10T13:39:04;1.70;;;1.17;;
6505;SDS011;3286;49.858;8.768;2023-05-10T13:41:31;3.28;;;1.10;;
6505;SDS011;3286;49.858;8.768;2023-05-10T13:43:58;2.20;;;1.00;;
6505;SDS011;3286;49.858;8.768;2023-05-10T13:46:24;1.52;;;1.00;;
6505;SDS011;3286;49.858;8.768;2023-05-10T13:48:51;2.65;;;1.20;;
6505;SDS011;3286;49.858;8.768;2023-05-10T13:51:18;3.25;;;1.08;;
6505;SDS011;3286;49.858;8.768;2023-05-10T13:53:46;1.27;;;1.02;;
6505;SDS011;3286;49.858;8.768;2023-05-10T13:56:13;4.05;;;1.10;;
6505;SDS011;3286;49.858;8.768;2023-05-10T13:58:40;7.40;;;1.30;;
6505;SDS011;3286;49.858;8.768;2023-05-10T14:01:06;2.65;;;0.85;;
6505;SDS011;3286;49.858;8.768;2023-05-10T14:03:33;1.85;;;1.00;;
6505;SDS011;3286;49.858;8.768;2023-05-10T14:06:01;3.22;;;0.70;;
6505;SDS011;3286;49.858;8.768;2023-05-10T14:08:27;7.22;;;1.10;;
6505;SDS011;3286;49.858;8.768;2023-05-10T14:10:55;2.33;;;0.98;;
6505;SDS011;3286;49.858;8.768;2023-05-10T14:13:22;1.92;;;1.00;;
6505;SDS011;3286;49.858;8.768;2023-05-10T14:15:49;1.95;;;1.00;;
6505;SDS011;3286;49.858;8.768;2023-05-10T14:18:16;1.48;;;0.80;;
6505;SDS011;3286;49.858;8.768;2023-05-10T14:20:43;2.08;;;0.95;;
6505;SDS011;3286;49.858;8.768;2023-05-10T14:23:09;2.13;;;0.80;;
6505;SDS011;3286;49.858;8.768;2023-05-10T14:25:36;3.13;;;1.02;;
6505;SDS011;3286;49.858;8.768;2023-05-10T14:28:05;3.88;;;0.90;;
6505;SDS011;3286;49.858;8.768;2023-05-10T14:30:31;1.70;;;0.85;;
6505;SDS011;3286;49.858;8.768;2023-05-10T14:33:00;2.33;;;0.85;;
6505;SDS011;3286;49.858;8.768;2023-05-10T14:35:28;2.33;;;0.90;;
6505;SDS011;3286;49.858;8.768;2023-05-10T14:37:56;1.98;;;0.98;;
6505;SDS011;3286;49.858;8.768;2023-05-10T14:40:22;2.90;;;0.80;;
6505;SDS011;3286;49.858;8.768;2023-05-10T14:42:49;2.45;;;1.02;;
6505;SDS011;3286;49.858;8.768;2023-05-10T14:45:19;1.52;;;1.08;;
6505;SDS011;3286;49.858;8.768;2023-05-10T14:47:46;5.15;;;1.30;;
6505;SDS011;3286;49.858;8.768;2023-05-10T14:50:13;2.80;;;1.02;;
6505;SDS011;3286;49.858;8.768;2023-05-10T14:52:39;2.55;;;0.90;;
6505;SDS011;3286;49.858;8.768;2023-05-10T14:55:08;1.23;;;1.00;;
6505;SDS011;3286;49.858;8.768;2023-05-10T14:57:35;1.92;;;1.02;;
6505;SDS011;3286;49.858;8.768;2023-05-10T15:00:01;1.42;;;0.85;;
6505;SDS011;3286;49.858;8.768;2023-05-10T15:02:30;2.10;;;0.95;;
6505;SDS011;3286;49.858;8.768;2023-05-10T15:04:56;1.65;;;0.93;;
6505;SDS011;3286;49.858;8.768;2023-05-10T15:07:24;1.90;;;1.33;;
6505;SDS011;3286;49.858;8.768;2023-05-10T15:09:51;3.22;;;1.30;;
6505;SDS011;3286;49.858;8.768;2023-05-10T15:12:18;3.03;;;1.17;;
6505;SDS011;3286;49.858;8.768;2023-05-10T15:14:45;3.05;;;1.08;;
6505;SDS011;3286;49.858;8.768;2023-05-10T15:17:11;3.85;;;1.10;;
6505;SDS011;3286;49.858;8.768;2023-05-10T15:19:39;1.30;;;1.00;;
6505;SDS011;3286;49.858;8.768;2023-05-10T15:22:06;1.58;;;0.90;;
6505;SDS011;3286;49.858;8.768;2023-05-10T15:24:32;2.13;;;0.88;;
6505;SDS011;3286;49.858;8.768;2023-05-10T15:26:59;2.75;;;1.10;;
6505;SDS011;3286;49.858;8.768;2023-05-10T15:29:26;2.20;;;1.30;;
6505;SDS011;3286;49.858;8.768;2023-05-10T15:31:52;3.50;;;0.95;;
6505;SDS011;3286;49.858;8.768;2023-05-10T15:34:20;2.80;;;1.10;;